Karl Stefan Memorial Airport
KOFK : now visible

Airfield :











YOU CAN JOIN US ON...

 
LOGIN :

Register | Disclaimer

   EN    FR    IT 

 









Legend :    VFR   Marginal VFR   IFR   Intensive IFR   Very Intensive IFR
Visi :
Ceiling :
>= 8 km
>= 3000ft
5 to 8 km
1000 to 3000 ft
1500m to 5 km
500 to 1000 ft
800 to 1500m
200 to 500 ft
< 800m
< 200 ft
Symbols :   Thunderstorms  Fog  Heavy snow  Heavy precipitations  Wind > 20 kt






- Airport Elevation : 1573 ft


KOFK - Karl Stefan Memorial

CURRENT METAR :
  • 232356Z AUTO 11010KT 10SM OVC040 13/01 A2984 RMK AO2 SLP110 T01280006 10144 20111 53001

EXPIRED METARs :
  • 232256Z AUTO 10012G20KT 10SM OVC037 13/00 A2982 RMK AO2 SLP105 T01330000
  • 232156Z AUTO 11013G21KT 10SM OVC035 14/01 A2982 RMK AO2 SLP104 T01390006

TAF KOFK
Valid from the 24 at 00:00 until the 25 at 00:00 UTC


232320Z 2400/2424 10012KT P6SM OVC035
FM240500 09012KT P6SM VCSH OVC025
FM240700 08010KT 6SM -SHRA BR VCTS BKN015 OVC030CB
FM241000 05010KT 6SM BR VCSH OVC008
FM241400 03010KT 3SM -RA BR OVC007
FM242200 36014G22KT 6SM BR OVC008
KZMP FIR / North America



MET'MAP, your aeronautical weather chart ! - Copyright ORBIFLY December 2007 - Disclaimer

ORBIFLY MET'MAP TEAM :

Programming & Development : Alexandra Zaïnal
Concept & original design : Baudouin d'Aumeries
Assistance for programming : Marc-Olivier Méhu
Technical & hardware support : Manuel Goepfert

Contact : metmap@orbifly.com




SOURCES & CREDITS :

   NOAA       Earth
Advisory